HARTSFIELD - JACKSON ATLANTA INTL

KATL (ATL)
Atlanta, Georgia
Towered

Vatsim Metar:
KATL 110952Z 33010KT 10SM SCT085 OVC180 03/00 A3031 RMK AO2 SLP268 T00280000

No ATC Online

Traffic

Inbound:
None
Outbound:
Ident
Type
Name
Destination
Phase

IAPs

SIDs

STARS

Alternate Minimums

Hot Spots

Land and Hold Short